createdAt,value
2023-02-27T00:00:30.718Z,4.22
2023-02-27T00:02:58.361Z,3.90
2023-02-27T00:05:25.958Z,4.25
2023-02-27T00:07:53.013Z,4.47
2023-02-27T00:10:20.551Z,4.90
2023-02-27T00:12:47.557Z,4.53
2023-02-27T00:15:17.813Z,5.00
2023-02-27T00:17:45.386Z,4.53
2023-02-27T00:20:14.990Z,4.82
2023-02-27T00:22:43.074Z,4.65
2023-02-27T00:25:11.476Z,4.57
2023-02-27T00:27:39.073Z,5.22
2023-02-27T00:30:09.223Z,4.72
2023-02-27T00:32:36.700Z,4.68
2023-02-27T00:35:06.116Z,4.25
2023-02-27T00:37:34.388Z,3.97
2023-02-27T00:40:01.661Z,4.45
2023-02-27T00:42:30.829Z,5.30
2023-02-27T00:44:58.137Z,4.88
2023-02-27T00:47:25.125Z,4.78
2023-02-27T00:49:53.669Z,4.60
2023-02-27T00:52:20.791Z,4.97
2023-02-27T00:54:47.860Z,5.53
2023-02-27T00:57:14.930Z,5.57
2023-02-27T00:59:42.345Z,5.13
2023-02-27T01:02:09.341Z,4.80
2023-02-27T01:04:36.776Z,5.03
2023-02-27T01:07:03.838Z,5.53
2023-02-27T01:09:30.849Z,4.53
2023-02-27T01:11:57.856Z,5.55
2023-02-27T01:14:25.539Z,5.43
2023-02-27T01:16:52.813Z,5.35
2023-02-27T01:19:19.855Z,4.72
2023-02-27T01:21:46.905Z,4.82
2023-02-27T01:24:14.008Z,5.45
2023-02-27T01:26:41.228Z,4.57
2023-02-27T01:29:09.975Z,4.95
2023-02-27T01:31:38.858Z,5.15
2023-02-27T01:34:05.958Z,4.30
2023-02-27T01:36:33.031Z,4.95
2023-02-27T01:39:00.024Z,4.68
2023-02-27T01:41:27.411Z,4.95
2023-02-27T01:44:04.242Z,4.72
2023-02-27T01:46:32.420Z,5.03
2023-02-27T01:49:23.995Z,4.20
2023-02-27T01:51:56.151Z,4.75
2023-02-27T01:54:26.813Z,4.30
2023-02-27T01:56:53.942Z,4.07
2023-02-27T01:59:21.634Z,3.42
2023-02-27T02:01:51.390Z,3.83
2023-02-27T02:04:38.057Z,3.50
2023-02-27T02:07:08.683Z,3.20
2023-02-27T02:09:51.028Z,3.25
2023-02-27T02:12:21.330Z,3.40
2023-02-27T02:14:48.388Z,3.38
2023-02-27T02:17:32.254Z,3.92
2023-02-27T02:20:30.291Z,4.25
2023-02-27T02:23:18.843Z,3.00
2023-02-27T02:26:29.241Z,3.10
2023-02-27T02:29:38.800Z,3.22
2023-02-27T02:32:27.048Z,3.55
2023-02-27T02:35:16.946Z,2.78
2023-02-27T02:38:02.900Z,3.30
2023-02-27T02:40:46.122Z,3.13
2023-02-27T02:43:50.203Z,3.05
2023-02-27T02:46:35.607Z,3.03
2023-02-27T02:49:28.658Z,3.28
2023-02-27T02:52:05.376Z,3.28
2023-02-27T02:54:42.003Z,2.38
2023-02-27T02:57:17.425Z,2.70
2023-02-27T02:59:53.489Z,2.72
2023-02-27T03:02:25.175Z,3.00
2023-02-27T03:04:59.052Z,2.83
2023-02-27T03:07:47.761Z,2.72
2023-02-27T03:10:20.602Z,3.45
2023-02-27T03:12:52.558Z,2.92
2023-02-27T03:15:30.916Z,2.95
2023-02-27T03:17:59.380Z,2.92
2023-02-27T03:20:33.645Z,2.83
2023-02-27T03:23:09.595Z,3.33
2023-02-27T03:25:38.723Z,2.33
2023-02-27T03:28:11.064Z,2.50
2023-02-27T03:30:45.066Z,2.47
2023-02-27T03:33:24.464Z,2.90
2023-02-27T03:36:04.436Z,3.17
2023-02-27T03:38:46.737Z,2.67
2023-02-27T03:41:31.318Z,2.40
2023-02-27T03:44:28.582Z,2.88
2023-02-27T03:46:55.868Z,2.70
2023-02-27T03:49:23.182Z,2.92
2023-02-27T03:51:50.440Z,2.42
2023-02-27T03:54:27.245Z,2.05
2023-02-27T03:56:57.304Z,2.60
2023-02-27T03:59:24.842Z,2.60
2023-02-27T04:01:56.617Z,2.70
2023-02-27T04:04:25.159Z,2.35
2023-02-27T04:07:35.360Z,2.25
2023-02-27T04:10:17.193Z,2.67
2023-02-27T04:12:53.037Z,2.25
2023-02-27T04:15:47.547Z,2.55
2023-02-27T04:18:29.811Z,1.90
2023-02-27T04:21:05.803Z,2.35
2023-02-27T04:23:45.860Z,2.42
2023-02-27T04:26:33.175Z,2.70
2023-02-27T04:29:23.198Z,2.38
2023-02-27T04:32:10.876Z,2.90
2023-02-27T04:35:20.667Z,3.08
2023-02-27T04:38:00.519Z,2.88
2023-02-27T04:40:35.432Z,2.25
2023-02-27T04:43:07.555Z,2.55
2023-02-27T04:45:38.408Z,3.00
2023-02-27T04:48:14.046Z,2.20
2023-02-27T04:50:46.493Z,2.55
2023-02-27T04:53:20.647Z,2.20
2023-02-27T04:55:54.019Z,1.60
2023-02-27T04:58:29.540Z,2.40
2023-02-27T05:01:13.916Z,2.92
2023-02-27T05:03:47.619Z,2.08
2023-02-27T05:06:19.059Z,1.98
2023-02-27T05:09:11.867Z,2.65
2023-02-27T05:11:48.035Z,3.13
2023-02-27T05:14:38.712Z,2.95
2023-02-27T05:17:31.023Z,2.60
2023-02-27T05:19:59.229Z,2.03
2023-02-27T05:22:30.141Z,2.55
2023-02-27T05:25:35.230Z,2.33
2023-02-27T05:28:06.965Z,2.08
2023-02-27T05:30:52.770Z,2.60
2023-02-27T05:33:31.159Z,2.20
2023-02-27T05:36:15.356Z,2.95
2023-02-27T05:38:50.366Z,2.38
2023-02-27T05:41:23.058Z,3.03
2023-02-27T05:44:12.616Z,2.55
2023-02-27T05:46:45.659Z,2.97
2023-02-27T05:49:31.858Z,2.78
2023-02-27T05:52:02.776Z,2.58
2023-02-27T05:54:44.423Z,3.05
2023-02-27T05:57:17.012Z,3.40
2023-02-27T05:59:52.995Z,3.03
2023-02-27T06:02:20.065Z,3.08
2023-02-27T06:04:47.206Z,3.28
2023-02-27T06:07:14.774Z,3.92
2023-02-27T06:09:43.496Z,4.97
2023-02-27T06:12:10.468Z,4.70
2023-02-27T06:14:37.448Z,3.38
2023-02-27T06:17:04.890Z,4.20
2023-02-27T06:19:31.935Z,4.40
2023-02-27T06:21:58.943Z,5.15
2023-02-27T06:24:26.750Z,4.85
2023-02-27T06:26:53.819Z,4.32
2023-02-27T06:29:20.875Z,3.75
2023-02-27T06:31:47.968Z,3.78
2023-02-27T06:34:15.269Z,3.70
2023-02-27T06:36:42.508Z,3.05
2023-02-27T06:39:09.584Z,4.00
2023-02-27T06:41:36.561Z,3.13
2023-02-27T06:44:03.703Z,3.13
2023-02-27T06:46:31.098Z,4.13
2023-02-27T06:48:58.276Z,4.00
2023-02-27T06:51:25.238Z,3.03
2023-02-27T06:53:52.319Z,3.22
2023-02-27T06:56:19.637Z,3.92
2023-02-27T06:58:46.615Z,3.42
2023-02-27T07:01:14.459Z,3.63
2023-02-27T07:03:41.477Z,3.65
2023-02-27T07:06:08.472Z,3.25
2023-02-27T07:08:35.910Z,2.35
2023-02-27T07:11:02.923Z,3.10
2023-02-27T07:13:30.194Z,2.63
2023-02-27T07:15:57.209Z,3.35
2023-02-27T07:18:25.473Z,3.10
2023-02-27T07:20:52.644Z,4.57
2023-02-27T07:23:19.624Z,3.75
2023-02-27T07:25:47.834Z,3.78
2023-02-27T07:28:15.043Z,3.40
2023-02-27T07:30:42.163Z,3.03
2023-02-27T07:33:09.167Z,3.90
2023-02-27T07:35:36.156Z,4.00
2023-02-27T07:38:03.502Z,3.47
2023-02-27T07:40:30.608Z,4.85
2023-02-27T07:42:57.626Z,3.88
2023-02-27T07:45:24.691Z,4.25
2023-02-27T07:47:51.663Z,4.28
2023-02-27T07:50:18.697Z,4.75
2023-02-27T07:52:45.947Z,4.45
2023-02-27T07:55:14.242Z,4.30
2023-02-27T07:57:41.375Z,4.20
2023-02-27T08:00:09.835Z,4.80
2023-02-27T08:02:40.023Z,4.77
2023-02-27T08:05:07.787Z,4.25
2023-02-27T08:07:36.501Z,5.00
2023-02-27T08:10:04.842Z,4.47
2023-02-27T08:12:31.977Z,4.35
2023-02-27T08:14:59.007Z,5.32
2023-02-27T08:17:25.981Z,3.92
2023-02-27T08:19:52.952Z,3.90
2023-02-27T08:22:19.982Z,3.78
2023-02-27T08:24:46.994Z,3.20
2023-02-27T08:27:14.559Z,4.45
2023-02-27T08:29:43.312Z,3.92
2023-02-27T08:32:10.392Z,3.25
2023-02-27T08:34:37.627Z,2.30
2023-02-27T08:37:04.617Z,2.67
2023-02-27T08:39:31.722Z,2.17
2023-02-27T08:41:58.782Z,1.90
2023-02-27T08:44:25.760Z,2.13
2023-02-27T08:46:52.770Z,2.38
2023-02-27T08:49:21.605Z,2.00
2023-02-27T08:51:48.749Z,1.67
2023-02-27T08:54:15.765Z,1.92
2023-02-27T08:56:42.778Z,1.80
2023-02-27T08:59:09.799Z,1.20
2023-02-27T09:01:36.745Z,1.60
2023-02-27T09:04:05.796Z,1.20
2023-02-27T09:06:35.703Z,0.60
2023-02-27T09:09:04.439Z,0.70
2023-02-27T09:11:32.111Z,1.10
2023-02-27T09:13:59.127Z,0.60
2023-02-27T09:16:27.035Z,0.60
2023-02-27T09:18:54.599Z,0.38
2023-02-27T09:21:23.458Z,1.95
2023-02-27T09:23:51.900Z,0.35
2023-02-27T09:26:18.998Z,0.43
2023-02-27T09:28:46.072Z,0.30
2023-02-27T09:31:13.313Z,0.50
2023-02-27T09:33:40.401Z,1.30
2023-02-27T09:36:08.248Z,0.50
2023-02-27T09:38:35.907Z,0.30
2023-02-27T09:41:05.348Z,0.52
2023-02-27T09:43:43.587Z,0.95
2023-02-27T09:46:17.619Z,0.20
2023-02-27T09:48:50.826Z,0.40
2023-02-27T09:51:19.813Z,0.40
2023-02-27T09:53:50.213Z,0.15
2023-02-27T09:56:23.190Z,0.28
2023-02-27T09:58:54.702Z,0.32
2023-02-27T10:01:23.902Z,0.30
2023-02-27T10:04:03.072Z,0.40
2023-02-27T10:06:36.970Z,0.20
2023-02-27T10:09:27.545Z,0.40
2023-02-27T10:12:12.486Z,0.40
2023-02-27T10:14:42.709Z,0.20
2023-02-27T10:17:27.773Z,0.68
2023-02-27T10:19:56.020Z,0.40
2023-02-27T10:22:35.257Z,0.40
2023-02-27T10:25:25.013Z,0.40
2023-02-27T10:28:08.784Z,0.40
2023-02-27T10:30:36.286Z,0.22
2023-02-27T10:33:10.359Z,0.20
2023-02-27T10:35:39.826Z,0.32
2023-02-27T10:38:14.360Z,0.38
2023-02-27T10:40:42.622Z,0.38
2023-02-27T10:43:13.269Z,0.30
2023-02-27T10:45:40.266Z,0.22
2023-02-27T10:48:08.414Z,0.40
2023-02-27T10:50:38.133Z,0.20
2023-02-27T10:53:16.620Z,0.50
2023-02-27T10:55:45.076Z,0.20
2023-02-27T10:58:19.275Z,0.20
2023-02-27T11:00:59.526Z,0.40
2023-02-27T11:03:30.028Z,0.20
2023-02-27T11:05:59.472Z,0.40
2023-02-27T11:08:28.930Z,0.20
2023-02-27T11:11:09.462Z,0.32
2023-02-27T11:13:40.028Z,0.20
2023-02-27T11:16:23.706Z,0.50
2023-02-27T11:18:52.496Z,0.98
2023-02-27T11:21:22.731Z,0.43
2023-02-27T11:23:58.928Z,0.30
2023-02-27T11:26:38.057Z,0.60
2023-02-27T11:29:18.179Z,0.30
2023-02-27T11:31:51.875Z,0.60
2023-02-27T11:34:29.041Z,0.20
2023-02-27T11:37:00.484Z,0.32
2023-02-27T11:39:49.030Z,0.70
2023-02-27T11:42:31.996Z,0.20
2023-02-27T11:45:07.289Z,0.47
2023-02-27T11:47:37.577Z,0.50
2023-02-27T11:50:23.523Z,0.47
2023-02-27T11:52:59.667Z,0.30
2023-02-27T11:55:30.382Z,0.57
2023-02-27T11:58:20.218Z,0.50
2023-02-27T12:01:09.567Z,0.60
2023-02-27T12:03:45.394Z,0.63
2023-02-27T12:06:21.107Z,0.47
2023-02-27T12:08:52.428Z,0.60
2023-02-27T12:11:29.149Z,0.60
2023-02-27T12:14:09.727Z,0.45
2023-02-27T12:17:08.640Z,0.38
2023-02-27T12:19:43.000Z,0.60
2023-02-27T12:22:20.843Z,0.52
2023-02-27T12:24:55.875Z,0.70
2023-02-27T12:27:29.171Z,0.40
2023-02-27T12:30:05.280Z,0.40
2023-02-27T12:32:40.723Z,0.60
2023-02-27T12:35:24.870Z,0.50
2023-02-27T12:37:52.585Z,0.35
2023-02-27T12:40:25.877Z,0.60
2023-02-27T12:43:18.817Z,0.25
2023-02-27T12:48:39.660Z,0.20
2023-02-27T12:51:19.772Z,0.25
2023-02-27T12:53:57.235Z,0.40
2023-02-27T12:56:35.832Z,0.40
2023-02-27T12:59:28.742Z,0.55
2023-02-27T13:05:40.861Z,0.30
2023-02-27T13:08:26.362Z,0.40
2023-02-27T13:11:05.962Z,0.40
2023-02-27T13:13:41.905Z,0.40
2023-02-27T13:16:22.498Z,0.52
2023-02-27T13:18:56.955Z,0.43
2023-02-27T13:21:24.007Z,0.80
2023-02-27T13:24:02.735Z,0.60
2023-02-27T13:26:41.685Z,0.57
2023-02-27T13:29:15.385Z,0.47
2023-02-27T13:32:00.078Z,0.80
2023-02-27T13:34:45.163Z,0.70
2023-02-27T13:37:12.217Z,0.22
2023-02-27T13:39:48.834Z,0.60
2023-02-27T13:42:44.523Z,0.50
2023-02-27T13:45:49.789Z,0.73
2023-02-27T13:48:42.805Z,0.30
2023-02-27T13:54:17.521Z,0.43
2023-02-27T13:56:47.475Z,0.30
2023-02-27T13:59:31.387Z,0.32
2023-02-27T14:02:10.386Z,0.35
2023-02-27T14:04:50.230Z,0.40
2023-02-27T14:07:21.430Z,0.57
2023-02-27T14:09:51.852Z,0.50
2023-02-27T14:12:44.663Z,1.00
2023-02-27T14:15:24.554Z,0.52
2023-02-27T14:18:12.666Z,0.55
2023-02-27T14:20:42.795Z,0.80
2023-02-27T14:23:15.586Z,3.03
2023-02-27T14:26:16.286Z,0.50
2023-02-27T14:28:53.895Z,0.40
2023-02-27T14:31:25.610Z,0.60
2023-02-27T14:33:55.636Z,0.40
2023-02-27T14:36:28.095Z,0.45
2023-02-27T14:38:57.416Z,0.60
2023-02-27T14:41:34.249Z,0.55
2023-02-27T14:44:02.338Z,1.88
2023-02-27T14:46:39.267Z,0.50
2023-02-27T14:49:18.092Z,0.70
2023-02-27T14:51:45.134Z,1.52
2023-02-27T14:54:19.700Z,1.00
2023-02-27T14:57:01.378Z,0.50
2023-02-27T14:59:43.840Z,1.08
2023-02-27T15:02:16.821Z,1.20
2023-02-27T15:04:45.318Z,0.50
2023-02-27T15:07:24.809Z,0.30
2023-02-27T15:09:54.862Z,0.40
2023-02-27T15:12:23.525Z,0.90
2023-02-27T15:14:57.844Z,0.77
2023-02-27T15:17:28.179Z,0.50
2023-02-27T15:19:59.417Z,0.57
2023-02-27T15:22:38.404Z,0.80
2023-02-27T15:25:25.638Z,0.70
2023-02-27T15:27:52.796Z,0.60
2023-02-27T15:30:21.636Z,0.50
2023-02-27T15:32:49.474Z,0.77
2023-02-27T15:35:16.417Z,0.40
2023-02-27T15:37:49.543Z,0.40
2023-02-27T15:40:22.305Z,0.45
2023-02-27T15:42:50.435Z,0.40
2023-02-27T15:45:20.293Z,0.32
2023-02-27T15:47:48.282Z,0.63
2023-02-27T15:50:18.224Z,0.60
2023-02-27T15:52:54.050Z,0.68
2023-02-27T15:56:01.931Z,0.80
2023-02-27T15:58:32.804Z,0.70
2023-02-27T16:01:03.289Z,0.30
2023-02-27T16:03:35.764Z,0.80
2023-02-27T16:06:10.847Z,0.60
2023-02-27T16:08:44.656Z,0.52
2023-02-27T16:11:23.288Z,0.60
2023-02-27T16:13:51.676Z,0.60
2023-02-27T16:16:35.100Z,0.63
2023-02-27T16:19:23.797Z,0.57
2023-02-27T16:22:06.651Z,0.38
2023-02-27T16:27:01.775Z,0.47
2023-02-27T16:29:40.067Z,0.80
2023-02-27T16:32:22.374Z,0.50
2023-02-27T16:34:49.704Z,0.60
2023-02-27T16:37:22.864Z,0.80
2023-02-27T16:39:51.987Z,0.80
2023-02-27T16:42:19.329Z,0.63
2023-02-27T16:44:46.706Z,0.45
2023-02-27T16:47:13.739Z,0.40
2023-02-27T16:49:41.003Z,0.85
2023-02-27T16:52:11.518Z,0.93
2023-02-27T16:54:38.584Z,1.30
2023-02-27T16:57:06.023Z,0.88
2023-02-27T16:59:39.705Z,0.63
2023-02-27T17:02:15.086Z,0.63
2023-02-27T17:04:47.792Z,0.88
2023-02-27T17:07:17.594Z,0.52
2023-02-27T17:09:45.997Z,0.70
2023-02-27T17:12:13.647Z,0.80
2023-02-27T17:14:40.692Z,0.90
2023-02-27T17:17:08.378Z,0.40
2023-02-27T17:19:35.380Z,0.50
2023-02-27T17:22:03.001Z,0.77
2023-02-27T17:24:30.014Z,0.70
2023-02-27T17:26:56.973Z,0.88
2023-02-27T17:29:24.163Z,0.80
2023-02-27T17:31:51.458Z,0.52
2023-02-27T17:34:18.644Z,1.67
2023-02-27T17:36:45.703Z,0.80
2023-02-27T17:39:14.125Z,0.65
2023-02-27T17:41:42.849Z,0.55
2023-02-27T17:44:13.458Z,0.50
2023-02-27T17:46:41.268Z,0.68
2023-02-27T17:49:09.444Z,0.80
2023-02-27T17:51:36.502Z,1.02
2023-02-27T17:54:05.109Z,0.82
2023-02-27T17:56:32.618Z,1.02
2023-02-27T17:58:59.836Z,1.77
2023-02-27T18:01:27.254Z,2.05
2023-02-27T18:03:54.792Z,2.25
2023-02-27T18:06:23.083Z,1.90
2023-02-27T18:08:50.332Z,1.45
2023-02-27T18:11:20.493Z,1.02
2023-02-27T18:13:48.609Z,1.23
2023-02-27T18:16:16.201Z,1.40
2023-02-27T18:18:43.743Z,1.92
2023-02-27T18:21:24.503Z,2.08
2023-02-27T18:23:52.430Z,1.98
2023-02-27T18:26:30.560Z,2.28
2023-02-27T18:29:00.770Z,2.63
2023-02-27T18:31:30.774Z,1.70
2023-02-27T18:33:58.257Z,1.92
2023-02-27T18:36:25.315Z,2.17
2023-02-27T18:38:52.310Z,2.00
2023-02-27T18:41:19.298Z,2.20
2023-02-27T18:43:46.374Z,2.35
2023-02-27T18:46:13.841Z,2.15
2023-02-27T18:48:44.279Z,1.50
2023-02-27T18:51:14.558Z,3.13
2023-02-27T18:53:44.379Z,1.85
2023-02-27T18:56:12.585Z,2.08
2023-02-27T18:58:39.683Z,1.95
2023-02-27T19:01:07.447Z,1.90
2023-02-27T19:03:35.978Z,3.63
2023-02-27T19:06:03.484Z,1.98
2023-02-27T19:08:31.379Z,1.77
2023-02-27T19:10:58.904Z,1.63
2023-02-27T19:13:26.523Z,2.00
2023-02-27T19:15:54.498Z,1.80
2023-02-27T19:18:21.586Z,1.77
2023-02-27T19:20:48.602Z,2.05
2023-02-27T19:23:15.708Z,3.63
2023-02-27T19:25:42.756Z,4.15
2023-02-27T19:28:11.513Z,2.78
2023-02-27T19:30:39.674Z,3.70
2023-02-27T19:33:06.672Z,5.13
2023-02-27T19:35:33.896Z,5.65
2023-02-27T19:38:00.869Z,4.32
2023-02-27T19:40:28.270Z,3.60
2023-02-27T19:42:55.388Z,3.03
2023-02-27T19:45:23.238Z,2.75
2023-02-27T19:47:50.347Z,2.78
2023-02-27T19:50:17.696Z,3.13
2023-02-27T19:52:44.746Z,2.70
2023-02-27T19:55:11.771Z,2.03
2023-02-27T19:57:38.816Z,2.22
2023-02-27T20:00:07.426Z,2.25
2023-02-27T20:02:41.085Z,2.78
2023-02-27T20:05:08.731Z,2.80
2023-02-27T20:07:35.781Z,2.88
2023-02-27T20:10:02.948Z,3.72
2023-02-27T20:12:29.921Z,2.78
2023-02-27T20:14:56.918Z,2.70
2023-02-27T20:17:25.004Z,4.13
2023-02-27T20:19:51.977Z,2.95
2023-02-27T20:22:18.964Z,2.70
2023-02-27T20:24:46.245Z,2.17
2023-02-27T20:27:15.076Z,2.35
2023-02-27T20:29:42.102Z,2.63
2023-02-27T20:32:09.363Z,2.80
2023-02-27T20:34:36.410Z,2.47
2023-02-27T20:37:03.548Z,2.55
2023-02-27T20:39:31.213Z,3.03
2023-02-27T20:41:58.376Z,2.47
2023-02-27T20:44:25.487Z,2.28
2023-02-27T20:46:52.601Z,2.42
2023-02-27T20:49:19.564Z,2.17
2023-02-27T20:51:46.654Z,2.17
2023-02-27T20:54:19.830Z,2.00
2023-02-27T20:56:51.653Z,1.63
2023-02-27T20:59:20.608Z,1.77
2023-02-27T21:01:51.895Z,2.15
2023-02-27T21:04:22.066Z,1.33
2023-02-27T21:06:50.265Z,1.98
2023-02-27T21:09:18.783Z,2.20
2023-02-27T21:11:45.897Z,1.42
2023-02-27T21:14:12.947Z,2.28
2023-02-27T21:16:40.536Z,2.05
2023-02-27T21:19:08.543Z,2.15
2023-02-27T21:21:36.717Z,1.60
2023-02-27T21:24:04.296Z,1.27
2023-02-27T21:26:38.115Z,1.85
2023-02-27T21:29:13.359Z,1.35
2023-02-27T21:31:44.985Z,1.80
2023-02-27T21:34:14.937Z,1.77
2023-02-27T21:36:44.851Z,1.70
2023-02-27T21:39:15.320Z,1.45
2023-02-27T21:41:43.424Z,1.50
2023-02-27T21:44:13.784Z,1.77
2023-02-27T21:46:41.153Z,2.30
2023-02-27T21:49:08.183Z,1.50
2023-02-27T21:51:40.760Z,1.88
2023-02-27T21:54:11.398Z,2.08
2023-02-27T21:56:39.067Z,2.22
2023-02-27T21:59:06.416Z,1.85
2023-02-27T22:01:34.066Z,1.55
2023-02-27T22:04:01.819Z,1.60
2023-02-27T22:06:33.899Z,1.95
2023-02-27T22:09:04.920Z,2.63
2023-02-27T22:11:34.224Z,1.50
2023-02-27T22:14:02.068Z,1.30
2023-02-27T22:16:29.111Z,1.40
2023-02-27T22:18:56.080Z,1.50
2023-02-27T22:21:27.001Z,1.50
2023-02-27T22:23:55.171Z,3.13
2023-02-27T22:26:24.711Z,5.38
2023-02-27T22:28:52.555Z,5.70
2023-02-27T22:31:22.589Z,5.78
2023-02-27T22:33:52.151Z,5.72
2023-02-27T22:36:25.374Z,5.95
2023-02-27T22:38:52.815Z,5.60
2023-02-27T22:41:23.430Z,4.90
2023-02-27T22:43:51.210Z,4.70
2023-02-27T22:46:25.852Z,3.25
2023-02-27T22:49:01.426Z,2.58
2023-02-27T22:51:29.143Z,2.40
2023-02-27T22:54:00.370Z,1.55
2023-02-27T22:56:27.732Z,2.63
2023-02-27T22:58:54.792Z,2.38
2023-02-27T23:01:24.488Z,2.17
2023-02-27T23:03:53.378Z,1.10
2023-02-27T23:06:26.593Z,1.45
2023-02-27T23:08:54.016Z,2.10
2023-02-27T23:11:21.632Z,1.23
2023-02-27T23:13:49.179Z,1.30
2023-02-27T23:16:17.420Z,1.77
2023-02-27T23:18:47.698Z,1.55
2023-02-27T23:21:17.081Z,1.17
2023-02-27T23:23:44.569Z,1.33
2023-02-27T23:26:12.172Z,0.82
2023-02-27T23:28:39.484Z,0.98
2023-02-27T23:31:07.910Z,1.25
2023-02-27T23:33:35.328Z,1.10
2023-02-27T23:36:02.964Z,1.27
2023-02-27T23:38:30.381Z,1.17
2023-02-27T23:40:57.746Z,1.20
2023-02-27T23:43:43.302Z,1.13
2023-02-27T23:46:13.456Z,1.50
2023-02-27T23:48:41.243Z,1.17
2023-02-27T23:51:10.128Z,1.10
2023-02-27T23:53:40.006Z,1.42
2023-02-27T23:56:13.091Z,1.48
2023-02-27T23:58:40.062Z,0.98
